Time;durP1;ratioP1;P1;durP2;ratioP2;P2;SDS_P1;SDS_P2;PMS_P1;PMS_P2;Temp;Humidity;BMP_temperature;BMP_pressure;BME280_temperature;BME280_humidity;BME280_pressure;Samples;Min_cycle;Max_cycle;Signal;HPM_P1;HPM_P2
2022/03/14 00:00:07;;;;;;;20.38;15.75;;;8.80;99.90;;;;;;5034328;28;20172;-59
2022/03/14 00:02:34;;;;;;;21.70;15.63;;;8.90;99.90;;;;;;5034289;28;20085;-59
2022/03/14 00:05:00;;;;;;;24.00;16.75;;;9.20;99.90;;;;;;5034116;28;20628;-59
2022/03/14 00:07:26;;;;;;;21.13;15.57;;;;;;;;;;5034447;28;20069;-59
2022/03/14 00:09:52;;;;;;;20.70;15.57;;;8.50;99.90;;;;;;5034081;28;20124;-59
2022/03/14 00:12:23;;;;;;;19.52;14.70;;;10.40;96.50;;;;;;5034408;28;20184;-59
2022/03/14 00:14:55;;;;;;;22.27;14.32;;;9.20;99.90;;;;;;5034261;28;20075;-59
2022/03/14 00:17:24;;;;;;;19.63;13.70;;;8.80;99.90;;;;;;5034264;28;20046;-59
2022/03/14 00:19:50;;;;;;;18.40;14.18;;;8.60;99.90;;;;;;5016203;28;20056;-59
2022/03/14 00:22:20;;;;;;;18.33;13.68;;;;;;;;;;5033754;28;20179;-59
2022/03/14 00:24:46;;;;;;;23.63;14.20;;;;;;;;;;5032795;28;20048;-59
2022/03/14 00:27:12;;;;;;;18.02;13.80;;;;;;;;;;5034212;28;20148;-59
2022/03/14 00:29:38;;;;;;;16.00;11.70;;;9.10;99.90;;;;;;5033963;28;20441;-61
2022/03/14 00:32:04;;;;;;;15.45;11.48;;;8.70;99.90;;;;;;5033761;28;20072;-59
2022/03/14 00:34:30;;;;;;;14.27;11.60;;;;;;;;;;5033789;28;20051;-61
2022/03/14 00:36:56;;;;;;;12.98;10.98;;;;;;;;;;4999706;28;20076;-59
2022/03/14 00:39:22;;;;;;;12.50;9.90;;;8.70;99.90;;;;;;5034083;28;20482;-59
2022/03/14 00:41:48;;;;;;;11.50;9.13;;;8.90;99.90;;;;;;5016038;28;20053;-59
2022/03/14 00:44:15;;;;;;;9.93;8.30;;;8.60;99.90;;;;;;5015784;28;20489;-59
2022/03/14 00:46:42;;;;;;;10.80;7.65;;;8.80;99.90;;;;;;5033591;28;20059;-59
2022/03/14 00:49:08;;;;;;;8.57;6.85;;;8.90;99.90;;;;;;5033663;28;20037;-59
2022/03/14 00:51:35;;;;;;;7.20;5.75;;;;;;;;;;5033226;28;20084;-59
2022/03/14 00:54:02;;;;;;;9.77;6.28;;;9.80;99.90;;;;;;5033671;28;20041;-59
2022/03/14 00:56:28;;;;;;;8.18;5.70;;;9.20;99.90;;;;;;5033521;28;20064;-59
2022/03/14 00:58:55;;;;;;;9.27;5.57;;;10.10;99.90;;;;;;5032216;28;20095;-59
2022/03/14 01:01:21;;;;;;;7.03;4.90;;;9.90;99.90;;;;;;5033118;28;20467;-59
2022/03/14 01:03:47;;;;;;;6.95;5.00;;;9.40;99.90;;;;;;5033150;28;20045;-59
2022/03/14 01:06:13;;;;;;;6.40;4.70;;;9.40;99.90;;;;;;5015252;28;20405;-59
2022/03/14 01:08:40;;;;;;;6.00;4.80;;;;;;;;;;5033318;28;20034;-59
2022/03/14 01:11:06;;;;;;;4.90;4.38;;;9.00;99.90;;;;;;5033212;28;20458;-59
2022/03/14 01:13:31;;;;;;;5.75;4.63;;;9.50;99.90;;;;;;5033156;28;20076;-59
2022/03/14 01:15:58;;;;;;;5.20;4.68;;;9.00;99.90;;;;;;5033029;28;20083;-59
2022/03/14 01:18:25;;;;;;;6.97;4.53;;;9.30;99.90;;;;;;5033210;28;20049;-59
2022/03/14 01:20:51;;;;;;;8.18;4.72;;;9.40;99.90;;;;;;5032777;28;20448;-59
2022/03/14 01:23:17;;;;;;;5.63;4.35;;;;;;;;;;5025476;28;20042;-59
2022/03/14 01:25:45;;;;;;;5.43;4.30;;;;;;;;;;5013341;28;20046;-59
2022/03/14 01:28:11;;;;;;;4.93;4.18;;;;;;;;;;5013231;28;20057;-59
2022/03/14 01:30:38;;;;;;;6.90;4.72;;;;;;;;;;5013058;28;20053;-60
2022/03/14 01:33:04;;;;;;;5.88;4.70;;;;;;;;;;5012852;28;20121;-60
2022/03/14 01:35:30;;;;;;;8.63;4.68;;;9.30;99.90;;;;;;5012566;28;20085;-59
2022/03/14 01:37:57;;;;;;;5.72;4.38;;;;;;;;;;5012920;28;20073;-59
2022/03/14 01:40:24;;;;;;;5.53;4.38;;;9.40;99.90;;;;;;5013309;28;20132;-60
2022/03/14 01:42:50;;;;;;;5.85;4.47;;;9.60;99.90;;;;;;5012990;28;20045;-59
2022/03/14 01:45:17;;;;;;;6.18;4.55;;;9.90;99.90;;;;;;5012675;28;20053;-59
2022/03/14 01:47:44;;;;;;;5.75;4.45;;;9.60;99.90;;;;;;5012448;28;20053;-59
2022/03/14 01:50:11;;;;;;;6.80;4.88;;;9.40;99.90;;;;;;5012873;28;20046;-59
2022/03/14 01:52:37;;;;;;;7.07;4.80;;;9.10;99.90;;;;;;5011269;28;20121;-59
2022/03/14 01:55:04;;;;;;;5.60;4.60;;;9.40;99.90;;;;;;5012471;28;20046;-59
2022/03/14 01:57:30;;;;;;;7.80;4.93;;;9.40;99.90;;;;;;5011273;28;20383;-59
2022/03/14 02:02:44;;;;;;;6.13;4.70;;;9.30;99.90;;;;;;4752473;22;20061;-66
2022/03/14 02:05:11;;;;;;;7.45;4.95;;;9.20;99.90;;;;;;5004218;28;20113;-66
2022/03/14 02:07:37;;;;;;;5.45;4.72;;;9.00;99.90;;;;;;4973976;28;20430;-66
2022/03/14 02:10:03;;;;;;;5.53;4.47;;;8.80;99.90;;;;;;4995654;28;20122;-66
2022/03/14 02:12:30;;;;;;;6.50;4.45;;;;;;;;;;5012981;28;20042;-66
2022/03/14 02:14:56;;;;;;;6.35;4.90;;;9.20;99.90;;;;;;5013989;28;20063;-66
2022/03/14 02:17:21;;;;;;;6.25;4.70;;;9.30;99.90;;;;;;5013546;28;20120;-66
2022/03/14 02:19:47;;;;;;;6.90;4.60;;;8.70;99.90;;;;;;4993127;28;20125;-66
2022/03/14 02:22:14;;;;;;;6.20;4.90;;;9.30;99.90;;;;;;4976835;28;20481;-66
2022/03/14 02:24:46;;;;;;;6.10;4.97;;;9.20;99.90;;;;;;4992947;28;20054;-66
2022/03/14 02:27:13;;;;;;;5.80;4.47;;;9.10;99.90;;;;;;4993252;28;20050;-66
2022/03/14 02:29:40;;;;;;;5.53;4.63;;;9.40;99.90;;;;;;4994151;28;20406;-66
2022/03/14 02:32:07;;;;;;;5.68;4.60;;;9.40;99.90;;;;;;4994192;28;20069;-66
2022/03/14 02:34:33;;;;;;;5.13;4.47;;;9.20;99.90;;;;;;4994240;28;20073;-66
2022/03/14 02:37:02;;;;;;;7.35;4.68;;;9.10;99.90;;;;;;5013806;28;20489;-66
2022/03/14 02:39:28;;;;;;;7.15;4.88;;;9.30;99.90;;;;;;5012748;28;20124;-66
2022/03/14 02:41:54;;;;;;;7.10;4.18;;;9.00;99.90;;;;;;5013607;28;20422;-66
2022/03/14 02:44:20;;;;;;;5.72;4.30;;;;;;;;;;5013518;28;20397;-66
2022/03/14 02:46:46;;;;;;;4.47;4.00;;;9.10;99.90;;;;;;5012286;28;20042;-66
2022/03/14 02:49:12;;;;;;;5.10;4.10;;;9.20;99.90;;;;;;5012876;28;20053;-66
2022/03/14 02:51:39;;;;;;;5.25;4.10;;;9.30;99.90;;;;;;5012333;28;20038;-66
2022/03/14 02:54:09;;;;;;;5.65;3.67;;;9.00;99.90;;;;;;4996039;28;20111;-66
2022/03/14 02:56:36;;;;;;;5.85;3.80;;;9.60;99.90;;;;;;5013686;28;20042;-66
2022/03/14 02:59:04;;;;;;;11.45;4.00;;;9.40;99.90;;;;;;4996154;28;20381;-66
2022/03/14 03:01:30;;;;;;;4.32;3.67;;;10.10;99.90;;;;;;5013490;28;20050;-66
2022/03/14 03:03:55;;;;;;;6.50;3.78;;;9.50;99.90;;;;;;5011946;28;20058;-66
2022/03/14 03:06:24;;;;;;;3.97;3.50;;;9.10;99.90;;;;;;5013559;28;20046;-66
2022/03/14 03:08:50;;;;;;;5.20;3.60;;;10.40;99.90;;;;;;5010764;28;20425;-66
2022/03/14 03:11:16;;;;;;;5.78;3.70;;;9.70;99.90;;;;;;4992745;28;20559;-66
2022/03/14 03:13:43;;;;;;;4.15;3.20;;;9.40;99.90;;;;;;4992572;28;20042;-66
2022/03/14 03:16:11;;;;;;;6.38;3.58;;;10.10;99.90;;;;;;4992738;28;20078;-66
2022/03/14 03:18:36;;;;;;;4.90;3.42;;;9.60;99.90;;;;;;4993996;28;20089;-66
2022/03/14 03:21:03;;;;;;;5.22;3.40;;;9.60;99.90;;;;;;4993593;28;20078;-66
2022/03/14 03:23:29;;;;;;;4.57;3.30;;;9.60;99.90;;;;;;4993577;28;20042;-66
2022/03/14 03:25:55;;;;;;;4.90;3.58;;;9.60;99.90;;;;;;4993810;28;20061;-66
2022/03/14 03:28:21;;;;;;;3.95;3.38;;;;;;;;;;4993433;28;20489;-66
2022/03/14 03:30:47;;;;;;;4.60;3.65;;;9.60;99.90;;;;;;4993770;28;20038;-66
2022/03/14 03:33:13;;;;;;;4.57;3.58;;;;;;;;;;4993755;28;20501;-66
2022/03/14 03:35:39;;;;;;;5.38;3.80;;;9.90;99.90;;;;;;4992340;28;20181;-66
2022/03/14 03:38:05;;;;;;;5.07;3.33;;;;;;;;;;4992530;28;20192;-66
2022/03/14 03:40:31;;;;;;;4.22;3.30;;;9.40;99.90;;;;;;4992294;28;20057;-66
2022/03/14 03:42:56;;;;;;;4.15;3.30;;;9.60;99.90;;;;;;4993686;28;20042;-66
2022/03/14 03:45:22;;;;;;;4.43;3.60;;;9.40;99.90;;;;;;4992171;28;20038;-66
2022/03/14 03:47:49;;;;;;;5.40;3.70;;;;;;;;;;4992190;28;20473;-66
2022/03/14 03:50:18;;;;;;;4.53;3.70;;;9.80;99.90;;;;;;4993479;28;20034;-66
2022/03/14 03:52:43;;;;;;;5.90;3.85;;;9.40;99.90;;;;;;4991940;28;20339;-66
2022/03/14 03:55:10;;;;;;;3.90;3.42;;;;;;;;;;4992201;28;20046;-66
2022/03/14 03:57:36;;;;;;;5.35;3.92;;;9.60;99.90;;;;;;4993544;28;20042;-66
2022/03/14 04:00:04;;;;;;;4.40;3.90;;;10.40;99.90;;;;;;4994283;28;20092;-66
2022/03/14 04:02:35;;;;;;;6.85;4.10;;;9.60;99.90;;;;;;4995458;28;20042;-66
2022/03/14 04:05:02;;;;;;;4.90;4.15;;;9.30;99.90;;;;;;4995935;28;20054;-66
2022/03/14 04:07:32;;;;;;;5.78;4.10;;;9.50;99.90;;;;;;4995500;28;20053;-66
2022/03/14 04:09:59;;;;;;;5.22;4.07;;;9.30;99.90;;;;;;4996739;28;20053;-66
2022/03/14 04:12:26;;;;;;;6.68;4.55;;;10.30;99.90;;;;;;4995429;28;20050;-66
2022/03/14 04:14:52;;;;;;;9.82;4.68;;;9.70;99.90;;;;;;4995440;28;20054;-66
2022/03/14 04:17:19;;;;;;;6.53;4.20;;;9.50;99.90;;;;;;4996661;28;20046;-66
2022/03/14 04:19:45;;;;;;;5.45;4.18;;;9.50;99.90;;;;;;4995247;28;20502;-66
2022/03/14 04:22:14;;;;;;;4.90;4.13;;;9.40;99.90;;;;;;4996812;28;20125;-66
2022/03/14 04:24:39;;;;;;;6.70;4.20;;;9.70;99.90;;;;;;4978282;28;20051;-66
2022/03/14 04:27:05;;;;;;;4.68;3.88;;;9.50;99.90;;;;;;4976016;28;20047;-68
2022/03/14 04:29:31;;;;;;;5.63;4.22;;;9.70;99.90;;;;;;4975696;28;20125;-66
2022/03/14 04:31:56;;;;;;;5.43;4.22;;;9.70;99.90;;;;;;4976878;28;20053;-66
2022/03/14 04:34:22;;;;;;;5.28;4.00;;;10.20;99.90;;;;;;4976602;28;20049;-66
2022/03/14 04:36:50;;;;;;;6.28;4.35;;;9.80;99.90;;;;;;4976832;28;20065;-66
2022/03/14 04:39:16;;;;;;;7.00;4.05;;;9.30;99.90;;;;;;4976314;28;20084;-66
2022/03/14 04:41:43;;;;;;;6.30;4.30;;;9.10;99.90;;;;;;4975763;28;20073;-71
2022/03/14 04:44:09;;;;;;;5.57;4.45;;;10.00;99.90;;;;;;4976766;28;20121;-71
2022/03/14 04:46:35;;;;;;;5.10;4.50;;;9.50;99.90;;;;;;4977143;28;20039;-71
2022/03/14 04:49:04;;;;;;;5.50;4.50;;;9.60;99.90;;;;;;4975167;28;20045;-72
2022/03/14 04:51:30;;;;;;;5.30;4.50;;;9.50;99.90;;;;;;4975577;28;20387;-72
2022/03/14 04:53:56;;;;;;;5.28;4.55;;;9.40;99.90;;;;;;4975395;28;20035;-71
2022/03/14 04:56:21;;;;;;;5.90;4.40;;;9.30;99.90;;;;;;4976679;28;20082;-71
2022/03/14 04:58:49;;;;;;;5.30;4.50;;;9.30;99.90;;;;;;4976697;28;20039;-71
2022/03/14 05:01:15;;;;;;;5.47;4.45;;;9.50;99.90;;;;;;4976386;28;20050;-71
2022/03/14 05:03:41;;;;;;;5.70;4.35;;;9.70;99.90;;;;;;4976026;28;20126;-71
2022/03/14 05:06:07;;;;;;;5.13;4.35;;;;;;;;;;4976192;28;20089;-71
2022/03/14 05:08:32;;;;;;;5.22;4.45;;;9.20;99.90;;;;;;4976354;28;20039;-71
2022/03/14 05:10:58;;;;;;;5.45;4.60;;;9.00;99.90;;;;;;4975502;28;20034;-71
2022/03/14 05:13:25;;;;;;;7.40;4.68;;;9.10;99.90;;;;;;4976577;28;20498;-72
2022/03/14 05:15:51;;;;;;;6.88;4.60;;;9.00;99.90;;;;;;4974865;28;20053;-72
2022/03/14 05:18:17;;;;;;;5.22;4.70;;;9.30;99.90;;;;;;4976152;28;20047;-72
2022/03/14 05:20:43;;;;;;;6.72;4.40;;;;;;;;;;4958883;28;20051;-72
2022/03/14 05:23:08;;;;;;;9.00;5.00;;;9.70;99.90;;;;;;4980935;28;20125;-66
2022/03/14 05:25:34;;;;;;;6.20;4.95;;;9.30;99.90;;;;;;4994242;28;20176;-66
2022/03/14 05:28:00;;;;;;;5.55;4.80;;;9.20;99.90;;;;;;4994314;28;20053;-66
2022/03/14 05:30:26;;;;;;;5.65;5.00;;;8.80;99.90;;;;;;4995279;28;20068;-66
2022/03/14 05:32:52;;;;;;;6.38;4.90;;;9.20;99.90;;;;;;4995018;28;20042;-66
2022/03/14 05:35:18;;;;;;;6.10;4.90;;;9.30;99.90;;;;;;4995366;28;20118;-66
2022/03/14 05:37:46;;;;;;;6.38;5.00;;;9.10;99.90;;;;;;4995342;28;20441;-66
2022/03/14 05:40:15;;;;;;;6.65;5.00;;;8.90;99.90;;;;;;4995205;28;20070;-66
2022/03/14 05:42:47;;;;;;;7.40;4.82;;;8.80;99.90;;;;;;4994924;28;20493;-66
2022/03/14 05:45:14;;;;;;;6.18;4.78;;;8.80;99.90;;;;;;4994749;28;20043;-66
2022/03/14 05:47:40;;;;;;;6.35;5.25;;;9.10;99.90;;;;;;4995185;28;20077;-66
2022/03/14 05:50:07;;;;;;;9.02;5.35;;;9.00;99.90;;;;;;4995236;28;20373;-66
2022/03/14 05:52:32;;;;;;;7.70;5.53;;;9.80;99.90;;;;;;4993663;28;20069;-66
2022/03/14 05:54:58;;;;;;;6.28;5.38;;;8.80;99.90;;;;;;4995102;28;20065;-66
2022/03/14 05:57:24;;;;;;;6.35;5.53;;;9.80;99.90;;;;;;4995065;28;20073;-66
2022/03/14 05:59:50;;;;;;;7.00;5.78;;;8.80;99.90;;;;;;4994564;28;20050;-67
2022/03/14 06:02:20;;;;;;;8.60;5.70;;;9.30;99.90;;;;;;4994838;28;20448;-66
2022/03/14 06:04:47;;;;;;;6.63;5.75;;;9.20;99.90;;;;;;4974997;28;20130;-66
2022/03/14 06:07:13;;;;;;;8.35;6.00;;;8.80;99.90;;;;;;4974050;28;20038;-66
2022/03/14 06:09:39;;;;;;;7.97;6.25;;;;;;;;;;4975067;28;20049;-67
2022/03/14 06:12:05;;;;;;;9.90;6.47;;;9.20;99.90;;;;;;4973786;28;20092;-68
2022/03/14 06:14:31;;;;;;;10.52;6.90;;;9.00;99.90;;;;;;4975254;28;20060;-66
2022/03/14 06:16:57;;;;;;;9.02;6.53;;;9.30;99.90;;;;;;4974838;28;20389;-67
2022/03/14 06:19:23;;;;;;;7.93;6.40;;;8.90;99.90;;;;;;4975155;28;20039;-66
2022/03/14 06:21:50;;;;;;;8.55;6.75;;;9.10;99.90;;;;;;4974927;28;20085;-66
2022/03/14 06:24:16;;;;;;;11.65;6.90;;;;;;;;;;4974936;28;20050;-66
2022/03/14 06:26:43;;;;;;;8.85;6.50;;;8.80;99.90;;;;;;4973855;28;20434;-67
2022/03/14 06:29:09;;;;;;;8.85;7.15;;;8.60;99.90;;;;;;4974966;28;20383;-70
2022/03/14 06:31:35;;;;;;;10.32;7.43;;;8.70;99.90;;;;;;4974159;28;20394;-71
2022/03/14 06:34:01;;;;;;;8.80;7.57;;;;;;;;;;4973650;28;20043;-71
2022/03/14 06:36:28;;;;;;;8.63;7.40;;;8.90;99.90;;;;;;4974583;28;20038;-72
2022/03/14 06:38:58;;;;;;;12.45;7.50;;;8.70;99.90;;;;;;4973310;28;20043;-72
2022/03/14 06:41:24;;;;;;;10.75;8.07;;;;;;;;;;4989732;28;20043;-72
2022/03/14 06:43:53;;;;;;;9.10;7.75;;;8.90;99.90;;;;;;4974899;28;20046;-67
2022/03/14 06:46:19;;;;;;;9.77;7.90;;;9.00;99.90;;;;;;4974703;28;20117;-67
2022/03/14 06:48:46;;;;;;;9.55;7.93;;;8.70;99.90;;;;;;4973468;28;20054;-67
2022/03/14 06:51:12;;;;;;;11.30;8.73;;;8.40;99.90;;;;;;4974576;28;20046;-67
2022/03/14 06:53:38;;;;;;;11.43;8.50;;;8.30;99.90;;;;;;4974434;28;20034;-67
2022/03/14 06:56:04;;;;;;;10.93;8.60;;;8.80;99.90;;;;;;4973671;28;20185;-67
2022/03/14 06:58:30;;;;;;;11.15;8.80;;;8.90;99.90;;;;;;4974499;28;20093;-67
2022/03/14 07:00:57;;;;;;;14.68;9.60;;;8.80;99.90;;;;;;4974541;28;20425;-67
2022/03/14 07:03:23;;;;;;;11.60;8.98;;;8.80;99.90;;;;;;4982639;28;20101;-67
2022/03/14 07:05:49;;;;;;;11.68;9.20;;;8.80;99.90;;;;;;4993132;28;20050;-66
2022/03/14 07:08:16;;;;;;;11.38;9.20;;;8.50;99.90;;;;;;4976529;28;20046;-67
2022/03/14 07:10:42;;;;;;;11.35;9.23;;;8.50;99.90;;;;;;4993403;28;20073;-67
2022/03/14 07:13:07;;;;;;;13.45;10.30;;;8.80;99.90;;;;;;4993863;28;20046;-67
2022/03/14 07:15:33;;;;;;;15.30;10.05;;;8.70;99.90;;;;;;4993823;28;20045;-67
2022/03/14 07:18:00;;;;;;;13.80;9.98;;;8.90;99.90;;;;;;4960150;28;20038;-67
2022/03/14 07:20:26;;;;;;;12.95;9.60;;;8.40;99.90;;;;;;4976174;28;20042;-67
2022/03/14 07:22:53;;;;;;;13.27;9.98;;;;;;;;;;4960051;28;20101;-71
2022/03/14 07:25:24;;;;;;;12.88;10.43;;;8.50;99.90;;;;;;4976152;28;20046;-71
2022/03/14 07:27:50;;;;;;;13.25;10.43;;;;;;;;;;4976510;28;20077;-71
2022/03/14 07:30:16;;;;;;;16.27;11.07;;;;;;;;;;4975240;28;20093;-71
2022/03/14 07:32:42;;;;;;;14.05;10.50;;;;;;;;;;4962130;28;20039;-70
2022/03/14 07:35:09;;;;;;;17.40;11.23;;;8.70;99.90;;;;;;4968055;28;20073;-70
2022/03/14 07:37:35;;;;;;;15.65;11.18;;;8.40;99.90;;;;;;4984072;28;20046;-70
2022/03/14 07:40:01;;;;;;;17.30;11.60;;;8.70;99.90;;;;;;4977184;28;20045;-67
2022/03/14 07:42:27;;;;;;;14.23;11.23;;;8.40;99.90;;;;;;4967965;28;20065;-67
2022/03/14 07:44:53;;;;;;;14.95;10.75;;;8.90;99.90;;;;;;4983911;28;20046;-67
2022/03/14 07:47:19;;;;;;;15.25;12.10;;;;;;;;;;4978640;28;20363;-67
2022/03/14 07:49:45;;;;;;;17.58;12.13;;;8.70;99.90;;;;;;4995102;28;20050;-66
2022/03/14 07:52:15;;;;;;;18.55;13.43;;;8.90;99.90;;;;;;4979086;28;20035;-67
2022/03/14 07:54:40;;;;;;;19.45;12.95;;;8.70;99.90;;;;;;4996057;28;20045;-68
2022/03/14 07:57:06;;;;;;;20.17;14.45;;;;;;;;;;4977521;28;20101;-67
2022/03/14 07:59:33;;;;;;;21.42;14.77;;;;;;;;;;4994804;28;20042;-67
2022/03/14 08:01:59;;;;;;;19.70;14.15;;;;;;;;;;4996029;28;20034;-69
2022/03/14 08:04:28;;;;;;;22.52;14.38;;;8.60;99.90;;;;;;4995577;28;20094;-70
2022/03/14 08:06:54;;;;;;;21.42;14.63;;;;;;;;;;4995639;28;20086;-70
2022/03/14 08:09:21;;;;;;;20.63;14.23;;;9.10;99.90;;;;;;4995765;28;20039;-70
2022/03/14 08:11:47;;;;;;;19.65;14.70;;;8.90;99.90;;;;;;4994502;28;20050;-69
2022/03/14 08:14:13;;;;;;;19.15;14.52;;;;;;;;;;4994266;28;20064;-70
2022/03/14 08:16:39;;;;;;;19.73;14.90;;;8.90;99.90;;;;;;4995254;28;20038;-70
2022/03/14 08:19:06;;;;;;;18.38;13.77;;;9.20;99.90;;;;;;4995428;28;20504;-70
2022/03/14 08:21:33;;;;;;;22.33;15.52;;;9.20;99.90;;;;;;4994016;28;20478;-70
2022/03/14 08:23:59;;;;;;;21.85;15.15;;;;;;;;;;4995530;28;20141;-70
2022/03/14 08:26:24;;;;;;;20.63;15.63;;;8.70;99.90;;;;;;4995622;28;20096;-70
2022/03/14 08:28:51;;;;;;;21.27;15.15;;;8.90;99.90;;;;;;4978162;28;20078;-70
2022/03/14 08:31:18;;;;;;;20.20;15.05;;;9.00;99.90;;;;;;4994112;28;20062;-70
2022/03/14 08:33:45;;;;;;;22.90;15.27;;;;;;;;;;4995400;28;20115;-70
2022/03/14 08:36:11;;;;;;;22.38;15.50;;;9.40;99.90;;;;;;4995087;28;20046;-70
2022/03/14 08:38:38;;;;;;;21.45;16.00;;;9.80;99.90;;;;;;4995432;28;20044;-70
2022/03/14 08:41:03;;;;;;;19.60;14.63;;;9.10;99.90;;;;;;4995167;28;20045;-70
2022/03/14 08:43:29;;;;;;;23.15;15.82;;;;;;;;;;4993907;28;20042;-70
2022/03/14 08:45:58;;;;;;;22.52;16.40;;;9.20;99.90;;;;;;4993030;28;20125;-70
2022/03/14 08:48:25;;;;;;;20.77;16.23;;;8.80;99.90;;;;;;4988208;28;20193;-70
2022/03/14 08:50:51;;;;;;;22.80;16.20;;;9.90;99.90;;;;;;4993774;28;20046;-70
2022/03/14 08:53:17;;;;;;;20.33;16.52;;;9.30;99.90;;;;;;4995176;28;20034;-70
2022/03/14 08:55:43;;;;;;;23.42;16.95;;;;;;;;;;4995071;28;20091;-70
2022/03/14 08:58:08;;;;;;;24.35;17.92;;;9.10;99.90;;;;;;4994919;28;20116;-69
2022/03/14 09:00:35;;;;;;;24.30;18.70;;;9.20;99.90;;;;;;4993849;28;20466;-70
2022/03/14 09:03:01;;;;;;;23.58;17.85;;;;;;;;;;4993353;28;20066;-69
2022/03/14 09:05:27;;;;;;;22.63;17.80;;;;;;;;;;4994910;28;20050;-70
2022/03/14 09:07:53;;;;;;;22.73;16.58;;;8.70;99.90;;;;;;4993487;28;20500;-70
2022/03/14 09:10:19;;;;;;;25.77;18.67;;;9.20;99.90;;;;;;4993196;28;20038;-67
2022/03/14 09:12:44;;;;;;;24.40;17.98;;;9.10;99.90;;;;;;4993466;28;20117;-67
2022/03/14 09:15:11;;;;;;;24.63;17.65;;;9.00;99.90;;;;;;4993036;28;20085;-67
2022/03/14 09:17:57;;;;;;;23.15;17.73;;;9.60;99.90;;;;;;4995580;28;20043;-68
2022/03/14 09:20:26;;;;;;;24.58;18.73;;;9.40;99.90;;;;;;4973627;28;20051;-67
2022/03/14 09:22:52;;;;;;;26.00;18.70;;;9.00;99.90;;;;;;4975186;28;20074;-69
2022/03/14 09:25:19;;;;;;;29.38;20.25;;;9.80;99.90;;;;;;4974772;28;20038;-70
2022/03/14 09:27:46;;;;;;;29.75;20.92;;;9.80;99.90;;;;;;4973710;28;20053;-71
2022/03/14 09:30:13;;;;;;;29.55;20.67;;;9.10;99.90;;;;;;4974420;28;20034;-69
2022/03/14 09:32:39;;;;;;;35.70;22.17;;;;;;;;;;4975034;28;20049;-69
2022/03/14 09:35:07;;;;;;;37.42;23.73;;;;;;;;;;4974470;28;20074;-69
2022/03/14 09:37:35;;;;;;;40.55;24.38;;;8.70;99.90;;;;;;4957839;28;20057;-69
2022/03/14 09:40:05;;;;;;;41.10;23.90;;;8.70;99.90;;;;;;4973488;28;20051;-67
2022/03/14 09:42:32;;;;;;;39.78;24.73;;;9.10;99.90;;;;;;4973748;28;20043;-67
2022/03/14 09:45:00;;;;;;;34.88;23.17;;;8.90;99.90;;;;;;4972950;28;20093;-67
2022/03/14 09:47:28;;;;;;;40.42;23.75;;;8.90;99.90;;;;;;4980694;28;20030;-67
2022/03/14 09:49:56;;;;;;;31.05;21.02;;;9.00;99.90;;;;;;4974543;28;20043;-67
2022/03/14 09:52:22;;;;;;;37.13;23.02;;;8.50;99.90;;;;;;4973241;28;20046;-67
2022/03/14 09:54:49;;;;;;;24.50;17.13;;;9.10;99.90;;;;;;4974418;28;20516;-67
2022/03/14 09:57:16;;;;;;;21.80;14.23;;;;;;;;;;4973451;28;20049;-67
2022/03/14 09:59:42;;;;;;;25.40;15.00;;;8.90;99.90;;;;;;4974366;28;20050;-67
2022/03/14 10:02:12;;;;;;;21.88;13.82;;;8.70;99.90;;;;;;4981785;28;20042;-67
2022/03/14 10:04:38;;;;;;;22.15;14.60;;;9.00;99.90;;;;;;4982320;28;20055;-67
2022/03/14 10:07:06;;;;;;;24.88;16.33;;;9.00;99.90;;;;;;4980764;28;20388;-67
2022/03/14 10:09:34;;;;;;;25.92;15.93;;;9.00;99.90;;;;;;4974510;28;20074;-67
2022/03/14 10:12:00;;;;;;;24.73;17.02;;;9.00;99.90;;;;;;4973543;28;20030;-67
2022/03/14 10:14:26;;;;;;;25.92;17.83;;;9.00;99.90;;;;;;4974084;28;20042;-67
2022/03/14 10:16:56;;;;;;;33.20;19.20;;;9.10;99.90;;;;;;4974185;28;20093;-67
2022/03/14 10:19:34;;;;;;;25.48;17.88;;;9.00;99.90;;;;;;4973734;28;20065;-67
2022/03/14 10:22:18;;;;;;;30.60;18.30;;;9.00;99.90;;;;;;4973976;28;20538;-67
2022/03/14 10:24:44;;;;;;;33.13;19.35;;;9.10;99.90;;;;;;4974489;28;20138;-67
2022/03/14 10:27:12;;;;;;;29.45;19.40;;;9.10;99.90;;;;;;4973490;28;20038;-67
2022/03/14 10:29:38;;;;;;;30.92;18.35;;;8.60;99.90;;;;;;4973820;28;20081;-67
2022/03/14 10:32:36;;;;;;;32.45;18.85;;;9.00;99.90;;;;;;4973420;28;20051;-67
2022/03/14 10:35:03;;;;;;;32.50;19.02;;;9.10;99.90;;;;;;4972919;28;20055;-67
2022/03/14 10:37:29;;;;;;;34.90;19.83;;;8.50;99.90;;;;;;4973602;28;20053;-67
2022/03/14 10:40:00;;;;;;;29.95;17.92;;;9.10;99.90;;;;;;4973629;28;20129;-68
2022/03/14 10:42:27;;;;;;;33.15;17.35;;;9.60;99.90;;;;;;4972619;28;20542;-68
2022/03/14 10:44:54;;;;;;;31.98;17.88;;;9.10;99.90;;;;;;4973675;28;20130;-68
2022/03/14 10:47:24;;;;;;;30.30;17.05;;;9.20;99.90;;;;;;4979474;28;20479;-68
2022/03/14 10:49:50;;;;;;;29.02;16.85;;;9.40;99.90;;;;;;4973774;28;20395;-68
2022/03/14 10:52:18;;;;;;;28.90;16.42;;;9.30;99.90;;;;;;4973232;28;20039;-68
2022/03/14 10:54:49;;;;;;;29.65;16.10;;;9.50;99.90;;;;;;4975516;28;20035;-68
2022/03/14 10:57:15;;;;;;;34.67;15.55;;;9.80;99.90;;;;;;4973341;28;20491;-68
2022/03/14 10:59:48;;;;;;;25.60;15.02;;;9.10;99.90;;;;;;4973535;28;20067;-68
2022/03/14 11:02:19;;;;;;;32.83;15.75;;;9.40;99.90;;;;;;4973015;28;20049;-68
2022/03/14 11:04:49;;;;;;;27.50;13.43;;;9.60;99.90;;;;;;4973396;28;20141;-68
2022/03/14 11:07:17;;;;;;;24.80;13.27;;;9.30;99.90;;;;;;4973008;28;20045;-68
2022/03/14 11:09:48;;;;;;;31.45;13.20;;;9.20;99.90;;;;;;4958343;28;20039;-68
2022/03/14 11:12:16;;;;;;;22.13;11.65;;;9.60;99.90;;;;;;4959090;28;20046;-68
2022/03/14 11:14:52;;;;;;;23.88;12.27;;;9.20;99.90;;;;;;4976897;28;20097;-69
2022/03/14 11:17:21;;;;;;;23.80;11.45;;;9.50;99.90;;;;;;4975841;28;20054;-69
2022/03/14 11:19:48;;;;;;;23.73;11.07;;;9.60;99.90;;;;;;4959043;28;20117;-69
2022/03/14 11:22:15;;;;;;;23.02;9.65;;;9.60;99.90;;;;;;4976824;28;20497;-68
2022/03/14 11:24:50;;;;;;;18.55;9.60;;;9.70;99.90;;;;;;4976976;28;20039;-68
2022/03/14 11:27:39;;;;;;;22.67;9.25;;;9.70;99.90;;;;;;4944382;28;20045;-69
2022/03/14 11:30:11;;;;;;;18.33;7.78;;;9.20;99.90;;;;;;4976726;28;20050;-68
2022/03/14 11:32:37;;;;;;;19.70;6.75;;;9.80;99.90;;;;;;4944045;28;20049;-68
2022/03/14 11:35:04;;;;;;;20.73;7.05;;;10.60;99.90;;;;;;4976550;28;20463;-69
2022/03/14 11:37:31;;;;;;;15.77;5.90;;;9.80;99.90;;;;;;4944350;28;20046;-69
2022/03/14 11:39:59;;;;;;;21.00;6.03;;;9.80;99.90;;;;;;4975641;28;20050;-69
2022/03/14 11:42:26;;;;;;;19.08;6.30;;;9.90;99.90;;;;;;4959591;28;20105;-69
2022/03/14 11:44:51;;;;;;;18.42;6.68;;;9.60;99.90;;;;;;4976914;28;20114;-69
2022/03/14 11:47:22;;;;;;;16.20;5.90;;;10.40;99.90;;;;;;4976331;28;20458;-70
2022/03/14 11:49:48;;;;;;;22.15;5.65;;;9.80;99.90;;;;;;4977405;28;20039;-70
2022/03/14 11:52:19;;;;;;;16.27;5.53;;;10.10;99.90;;;;;;4959294;28;20050;-69
2022/03/14 11:54:57;;;;;;;18.40;5.70;;;9.90;99.90;;;;;;4958987;28;20117;-70
2022/03/14 11:57:34;;;;;;;16.00;5.93;;;10.00;99.90;;;;;;4975913;28;20046;-72
2022/03/14 12:00:25;;;;;;;14.70;5.80;;;10.00;99.90;;;;;;4958794;28;20105;-71
2022/03/14 12:02:56;;;;;;;14.98;6.50;;;10.10;99.90;;;;;;4980469;28;20055;-71
2022/03/14 12:05:42;;;;;;;22.02;6.38;;;10.20;99.90;;;;;;4995600;28;20042;-71
2022/03/14 12:08:27;;;;;;;17.23;6.82;;;10.30;99.90;;;;;;4984996;28;20074;-71
2022/03/14 12:10:54;;;;;;;21.80;7.63;;;;;;;;;;4995542;28;20449;-72
2022/03/14 12:13:40;;;;;;;18.10;8.38;;;10.50;99.90;;;;;;4994561;28;20138;-71
2022/03/14 12:16:36;;;;;;;17.17;8.77;;;10.60;99.90;;;;;;4993629;28;20061;-71
2022/03/14 12:19:31;;;;;;;21.50;10.10;;;10.70;99.90;;;;;;4974540;28;20046;-70
2022/03/14 12:21:58;;;;;;;21.92;10.70;;;10.70;99.90;;;;;;4974823;28;20043;-70
2022/03/14 12:24:36;;;;;;;20.52;10.55;;;11.20;99.90;;;;;;4976067;28;20489;-71
2022/03/14 12:27:15;;;;;;;20.30;11.45;;;10.80;99.90;;;;;;4974424;28;20046;-70
2022/03/14 12:29:40;;;;;;;19.52;12.23;;;11.60;99.90;;;;;;4974955;28;20082;-71
2022/03/14 12:32:22;;;;;;;21.98;12.88;;;11.30;99.90;;;;;;4975858;28;20031;-71
2022/03/14 12:35:00;;;;;;;19.48;12.45;;;11.20;99.90;;;;;;4974711;28;20051;-71
2022/03/14 12:37:40;;;;;;;22.45;12.55;;;11.30;99.90;;;;;;4976021;28;20122;-71
2022/03/14 12:40:11;;;;;;;21.05;13.20;;;11.30;99.90;;;;;;4975813;28;20054;-71
2022/03/14 12:42:42;;;;;;;21.92;13.82;;;11.10;99.90;;;;;;4976036;28;20052;-71
2022/03/14 12:45:14;;;;;;;20.05;13.18;;;11.30;99.90;;;;;;4975286;28;20114;-71
2022/03/14 12:47:50;;;;;;;20.10;13.73;;;11.10;99.90;;;;;;4988574;28;20177;-71
2022/03/14 12:50:42;;;;;;;19.17;13.23;;;11.30;99.90;;;;;;4994077;28;20038;-71
2022/03/14 12:53:31;;;;;;;20.52;13.93;;;11.30;99.90;;;;;;4983205;28;20173;-71
2022/03/14 12:56:01;;;;;;;22.63;14.38;;;11.60;99.90;;;;;;4985199;28;20057;-71
2022/03/14 12:58:31;;;;;;;23.02;14.68;;;11.40;99.90;;;;;;4994920;28;20053;-71
2022/03/14 13:00:59;;;;;;;22.52;14.23;;;11.40;99.90;;;;;;4993493;28;20390;-71
2022/03/14 13:03:27;;;;;;;26.02;15.50;;;11.30;99.90;;;;;;4993391;28;20498;-72
2022/03/14 13:05:54;;;;;;;23.63;14.73;;;11.70;99.90;;;;;;4994810;28;20042;-72